SGEN/ENO METAR and TAF weather

Enter ICAO airport designator
Station Type Date Time Source
SGEN METAR 2018/12/13 21:00 UTC NOAA

SGEN 132100Z 36010KT 9999 FEW033 SCT080 36/18 Q1008


Station Type Date Time Source
SGEN Decoded METAR 2018/12/13 21:00 UTC NOAA

Encarnacion, Paraguay (SGEN) 27-19S 055-50W 91M
Dec 13, 2018 - 04:00 PM EST / 2018.12.13 2100 UTC
Wind: from the N (360 degrees) at 12 MPH (10 KT):0
Visibility: greater than 7 mile(s):0
Sky conditions: partly cloudy
Temperature: 96 F (36 C)
Heat index: 97.7 F (36.5 C):1
Dew Point: 64 F (18 C)
Relative Humidity: 34%
Pressure (altimeter): 29.77 in. Hg (1008 hPa)
ob: SGEN 132100Z 36010KT 9999 FEW033 SCT080 36/18 Q1008
cycle: 21

Station Type Date Time Source
SGEN TAF 2018/12/13 18:00 UTC NOAA

TAF SGEN 131618Z 1318/1418 05010KT 9999 FEW033 TX35/1319Z TN26/1410Z PROB30 1321/1323 8000 -SH BKN027 FEW040TCU
BECMG 1402/1406 08004KT CAVOK


Example: see airport list